Flag for Russia

Past Weather in 56°50'00.2"N, 60°36'00.2"E, Russia — Yesterday and Last 2 Weeks

Currently: 27 °F. Sunny. (Weather station: Ekaterinburg, Russia). See more current weather

Past Weather in 56°50'00.2"N, 60°36'00.2"E — Graph

°F

56°50'00.2"N, 60°36'00.2"E Temperature Yesterday

Maximum temperature yesterday: 30 °F (at 12:00 am)
Minimum temperature yesterday: 23 °F (at 8:30 am)
Average temperature yesterday: 28 °F

High & Low Weather Summary for the Past Weeks

 TemperatureHumidityPressure
High36 °F (Feb 27, 3:30 pm)92% (Feb 18, 1:00 am)30.92 "Hg (Feb 18, 1:00 am)
Low-20 °F (Feb 17, 4:30 am)24% (Feb 28, 4:00 am)30.12 "Hg (Feb 14, 8:00 am)
Average9 °F59%30.56 "Hg
* Reported Feb 14 8:00 am — Feb 29 8:30 am, 56°50'00.2"N, 60°36'00.2"E. Weather by CustomWeather, © 2024

Note: Actual official high and low records may vary slightly from our data, if they occured in-between our weather recording intervals... More about our weather records

56°50'00.2"N, 60°36'00.2"E Weather History for the Previous 24 Hours

Scroll right to see more
 ConditionsComfort  
Time TempWeatherWind HumidityBarometerVisibility
8:30 am
Thu, Feb 29
25 °FSunny.10 mph39%30.33 "Hg10 mi
8:00 am25 °FSunny.10 mph39%30.33 "Hg10 mi
7:30 am27 °FPassing clouds.13 mph33%30.33 "HgN/A
6:30 am27 °FPassing clouds.17 mph31%30.36 "HgN/A
6:00 am23 °FPassing clouds.6 mph54%30.36 "HgN/A
5:30 am27 °FPassing clouds.8 mph39%30.36 "HgN/A
5:00 am27 °FPassing clouds.6 mph39%30.36 "HgN/A
4:30 am27 °FClear.6 mph46%30.39 "Hg10 mi
4:00 am27 °FClear.6 mph43%30.39 "Hg10 mi
3:30 am28 °FClear.8 mph37%30.39 "Hg10 mi
3:00 am28 °FClear.8 mph40%30.39 "Hg10 mi
2:30 am28 °FClear.6 mph43%30.39 "Hg10 mi
2:00 am28 °FClear.8 mph43%30.39 "Hg10 mi
1:30 am28 °FClear.8 mph40%30.39 "Hg10 mi
1:00 am28 °FClear.10 mph43%30.42 "Hg10 mi
12:30 am28 °FClear.10 mph47%30.42 "Hg10 mi
12:00 am27 °FClear.8 mph50%30.42 "Hg10 mi
11:30 pm
Wed, Feb 28
27 °FClear.10 mph50%30.42 "Hg10 mi
11:00 pm28 °FClear.10 mph51%30.42 "Hg10 mi
10:30 pm28 °FClear.15 mph47%30.42 "Hg10 mi
10:00 pm28 °FClear.13 mph51%30.42 "Hg10 mi
9:30 pm30 °FClear.15 mph47%30.42 "Hg10 mi
9:00 pm30 °FClear.13 mph43%30.42 "Hg10 mi
8:30 pm30 °FClear.15 mph43%30.42 "Hg10 mi
8:00 pm30 °FClear.10 mph47%30.42 "Hg10 mi
7:30 pm30 °FClear.10 mph43%30.42 "Hg10 mi
7:00 pm30 °FPassing clouds.10 mph47%30.42 "HgN/A
6:00 pm30 °FPartly sunny.10 mph51%30.42 "HgN/A
5:30 pm30 °FPartly sunny.10 mph55%30.42 "HgN/A
5:00 pm30 °FPartly sunny.10 mph55%30.45 "HgN/A
4:30 pm28 °FSnow flurries. Partly sunny.13 mph64%30.45 "Hg5 mi
4:00 pm30 °FPartly sunny.15 mph55%30.42 "HgN/A
3:30 pm30 °FPartly sunny.13 mph55%30.42 "HgN/A
3:00 pm30 °FScattered clouds.15 mph59%30.45 "HgN/A
2:30 pm28 °FSnow flurries. Scattered clouds.10 mph55%30.45 "HgN/A
2:00 pm28 °FSnow flurries. Scattered clouds.10 mph51%30.45 "HgN/A
1:30 pm28 °FSnow flurries. Scattered clouds.15 mph51%30.45 "HgN/A
1:00 pm28 °FSnow flurries. Partly sunny.15 mph51%30.45 "HgN/A
12:30 pm28 °FScattered clouds.13 mph47%30.45 "HgN/A
12:00 pm28 °FScattered clouds.15 mph40%30.45 "HgN/A
11:30 am28 °FScattered clouds.15 mph43%30.45 "HgN/A
11:00 am27 °FScattered clouds.20 mph39%30.45 "HgN/A
10:30 am27 °FScattered clouds.17 mph39%30.45 "HgN/A
10:00 am27 °FPassing clouds.17 mph36%30.45 "HgN/A
Weather by CustomWeather, © 2024

See weather overview